createdAt,value
2018-02-27T00:00:56.171Z,0
2018-02-27T00:01:56.114Z,0
2018-02-27T00:02:56.045Z,0
2018-02-27T00:03:56.117Z,0
2018-02-27T00:04:56.140Z,0
2018-02-27T00:05:56.047Z,0
2018-02-27T00:06:56.118Z,0
2018-02-27T00:07:56.043Z,0
2018-02-27T00:08:56.053Z,0
2018-02-27T00:09:56.041Z,0
2018-02-27T00:10:56.120Z,0
2018-02-27T00:11:56.044Z,0
2018-02-27T00:12:56.086Z,0
2018-02-27T00:13:56.033Z,0
2018-02-27T00:14:56.041Z,0
2018-02-27T00:15:56.089Z,0
2018-02-27T00:16:56.045Z,0
2018-02-27T00:17:56.123Z,0
2018-02-27T00:18:56.126Z,0
2018-02-27T00:19:56.052Z,0
2018-02-27T00:20:56.123Z,0
2018-02-27T00:21:56.125Z,0
2018-02-27T00:22:56.063Z,0
2018-02-27T00:23:56.051Z,0
2018-02-27T00:24:56.129Z,0
2018-02-27T00:25:56.041Z,0
2018-02-27T00:26:56.003Z,0
2018-02-27T00:27:56.130Z,0
2018-02-27T00:28:56.069Z,0
2018-02-27T00:29:56.056Z,0
2018-02-27T00:30:56.040Z,0
2018-02-27T00:31:56.058Z,0
2018-02-27T00:32:56.132Z,0
2018-02-27T00:33:56.061Z,0
2018-02-27T00:34:56.043Z,0
2018-02-27T00:35:56.065Z,0
2018-02-27T00:36:56.137Z,0
2018-02-27T00:37:56.047Z,0
2018-02-27T00:38:56.138Z,0
2018-02-27T00:39:56.063Z,0
2018-02-27T00:40:56.148Z,0
2018-02-27T00:41:56.097Z,0
2018-02-27T00:42:56.143Z,0
2018-02-27T00:43:56.151Z,0
2018-02-27T00:44:56.152Z,0
2018-02-27T00:45:56.152Z,0
2018-02-27T00:46:56.152Z,0
2018-02-27T00:47:56.151Z,0
2018-02-27T00:48:56.154Z,0
2018-02-27T00:49:56.152Z,0
2018-02-27T00:50:56.175Z,0
2018-02-27T00:51:56.133Z,0
2018-02-27T00:52:56.148Z,0
2018-02-27T00:53:56.158Z,0
2018-02-27T00:54:56.215Z,0
2018-02-27T00:55:56.051Z,0
2018-02-27T00:56:56.181Z,0
2018-02-27T00:57:56.154Z,0
2018-02-27T00:58:56.194Z,0
2018-02-27T00:59:56.098Z,0
2018-02-27T01:00:56.156Z,0
2018-02-27T01:01:56.218Z,0
2018-02-27T01:02:56.158Z,0
2018-02-27T01:03:56.133Z,0
2018-02-27T01:04:56.063Z,0
2018-02-27T01:05:56.162Z,0
2018-02-27T01:06:56.190Z,0
2018-02-27T01:07:56.187Z,0
2018-02-27T01:08:56.131Z,0
2018-02-27T01:09:56.180Z,0
2018-02-27T01:10:56.172Z,0
2018-02-27T01:11:56.140Z,0
2018-02-27T01:12:56.100Z,0
2018-02-27T01:13:56.106Z,0
2018-02-27T01:14:56.136Z,0
2018-02-27T01:15:56.192Z,0
2018-02-27T01:16:56.140Z,0
2018-02-27T01:17:56.101Z,0
2018-02-27T01:18:56.072Z,0
2018-02-27T01:19:56.133Z,0
2018-02-27T01:20:56.131Z,0
2018-02-27T01:21:56.166Z,0
2018-02-27T01:22:56.128Z,0
2018-02-27T01:23:56.189Z,0
2018-02-27T01:24:56.108Z,0
2018-02-27T01:25:56.180Z,0
2018-02-27T01:26:56.114Z,0
2018-02-27T01:27:56.134Z,0
2018-02-27T01:28:56.179Z,0
2018-02-27T01:29:56.183Z,0
2018-02-27T01:30:56.070Z,0
2018-02-27T01:31:56.163Z,0
2018-02-27T01:32:56.160Z,0
2018-02-27T01:33:56.138Z,0
2018-02-27T01:34:56.114Z,0
2018-02-27T01:35:56.138Z,0
2018-02-27T01:36:56.078Z,0
2018-02-27T01:37:56.162Z,0
2018-02-27T01:38:56.147Z,0
2018-02-27T01:39:56.078Z,0
2018-02-27T01:40:56.095Z,0
2018-02-27T01:41:56.299Z,0
2018-02-27T01:42:56.214Z,0
2018-02-27T01:43:56.102Z,0
2018-02-27T01:44:56.219Z,0
2018-02-27T01:45:56.181Z,0
2018-02-27T01:46:56.249Z,0
2018-02-27T01:47:56.147Z,0
2018-02-27T01:48:56.180Z,0
2018-02-27T01:49:56.220Z,0
2018-02-27T01:50:56.166Z,0
2018-02-27T01:51:56.093Z,0
2018-02-27T01:52:56.086Z,0
2018-02-27T01:53:56.128Z,0
2018-02-27T01:54:56.090Z,0
2018-02-27T01:55:56.194Z,0
2018-02-27T01:56:56.186Z,0
2018-02-27T01:57:56.232Z,0
2018-02-27T01:58:56.170Z,0
2018-02-27T01:59:56.133Z,0
2018-02-27T02:00:56.160Z,0
2018-02-27T02:01:56.197Z,0
2018-02-27T02:02:56.249Z,0
2018-02-27T02:03:56.164Z,0
2018-02-27T02:04:56.233Z,0
2018-02-27T02:05:56.202Z,0
2018-02-27T02:06:56.172Z,0
2018-02-27T02:07:56.155Z,0
2018-02-27T02:08:56.133Z,0
2018-02-27T02:09:56.197Z,0
2018-02-27T02:10:56.200Z,0
2018-02-27T02:11:56.137Z,0
2018-02-27T02:12:56.238Z,0
2018-02-27T02:13:56.206Z,0
2018-02-27T02:14:56.099Z,0
2018-02-27T02:15:56.201Z,0
2018-02-27T02:16:56.200Z,0
2018-02-27T02:17:56.169Z,0
2018-02-27T02:18:56.200Z,0
2018-02-27T02:19:56.103Z,0
2018-02-27T02:20:56.201Z,0
2018-02-27T02:21:56.109Z,0
2018-02-27T02:22:56.238Z,0
2018-02-27T02:23:56.169Z,0
2018-02-27T02:24:56.169Z,0
2018-02-27T02:25:56.131Z,0
2018-02-27T02:26:56.175Z,0
2018-02-27T02:27:56.118Z,0
2018-02-27T02:28:56.209Z,0
2018-02-27T02:29:56.150Z,0
2018-02-27T02:30:56.176Z,0
2018-02-27T02:31:56.251Z,0
2018-02-27T02:32:56.250Z,0
2018-02-27T02:33:56.172Z,0
2018-02-27T02:34:56.215Z,0
2018-02-27T02:35:56.238Z,0
2018-02-27T02:36:56.133Z,0
2018-02-27T02:37:56.120Z,0
2018-02-27T02:38:56.265Z,0
2018-02-27T02:39:56.225Z,0
2018-02-27T02:40:56.119Z,0
2018-02-27T02:41:56.193Z,0
2018-02-27T02:42:56.147Z,0
2018-02-27T02:43:56.208Z,0
2018-02-27T02:44:56.118Z,0
2018-02-27T02:45:56.156Z,0
2018-02-27T02:46:56.210Z,0
2018-02-27T02:47:56.111Z,0
2018-02-27T02:48:56.116Z,0
2018-02-27T02:49:56.165Z,0
2018-02-27T02:50:56.227Z,0
2018-02-27T02:51:56.191Z,0
2018-02-27T02:52:56.146Z,0
2018-02-27T02:53:56.258Z,0
2018-02-27T02:54:56.189Z,0
2018-02-27T02:55:56.258Z,0
2018-02-27T02:56:56.253Z,0
2018-02-27T02:57:56.225Z,0
2018-02-27T02:58:56.256Z,0
2018-02-27T02:59:56.268Z,0
2018-02-27T03:00:56.222Z,0
2018-02-27T03:01:56.104Z,0
2018-02-27T03:02:56.191Z,0
2018-02-27T03:03:56.227Z,0
2018-02-27T03:04:56.193Z,0
2018-02-27T03:05:56.226Z,0
2018-02-27T03:06:56.221Z,0
2018-02-27T03:07:56.122Z,0
2018-02-27T03:08:56.180Z,0
2018-02-27T03:09:56.169Z,0
2018-02-27T03:10:56.173Z,0
2018-02-27T03:11:56.204Z,0
2018-02-27T03:12:56.211Z,0
2018-02-27T03:13:56.235Z,0
2018-02-27T03:14:56.218Z,0
2018-02-27T03:15:56.235Z,0
2018-02-27T03:16:56.241Z,0
2018-02-27T03:17:56.203Z,0
2018-02-27T03:18:56.214Z,0
2018-02-27T03:19:56.180Z,0
2018-02-27T03:20:56.171Z,0
2018-02-27T03:21:56.179Z,0
2018-02-27T03:22:56.177Z,0
2018-02-27T03:23:56.177Z,0
2018-02-27T03:24:56.247Z,0
2018-02-27T03:25:56.233Z,0
2018-02-27T03:26:56.245Z,0
2018-02-27T03:27:56.250Z,0
2018-02-27T03:28:56.205Z,0
2018-02-27T03:29:56.203Z,0
2018-02-27T03:30:56.213Z,0
2018-02-27T03:31:56.279Z,0
2018-02-27T03:32:56.250Z,0
2018-02-27T03:33:56.309Z,0
2018-02-27T03:34:56.259Z,0
2018-02-27T03:35:56.246Z,0
2018-02-27T03:36:56.175Z,0
2018-02-27T03:37:56.251Z,0
2018-02-27T03:38:56.291Z,0
2018-02-27T03:39:56.234Z,0
2018-02-27T03:40:56.308Z,0
2018-02-27T03:41:56.250Z,0
2018-02-27T03:42:56.178Z,0
2018-02-27T03:43:56.195Z,0
2018-02-27T03:44:56.219Z,0
2018-02-27T03:45:56.281Z,0
2018-02-27T03:46:56.173Z,0
2018-02-27T03:47:56.241Z,0
2018-02-27T03:48:56.203Z,0
2018-02-27T03:49:56.288Z,0
2018-02-27T03:50:56.175Z,0
2018-02-27T03:51:56.164Z,0
2018-02-27T03:52:56.174Z,0
2018-02-27T03:53:56.256Z,0
2018-02-27T03:54:56.256Z,0
2018-02-27T03:55:56.256Z,0
2018-02-27T03:56:56.178Z,0
2018-02-27T03:57:56.256Z,0
2018-02-27T03:58:56.190Z,0
2018-02-27T03:59:56.169Z,0
2018-02-27T04:00:56.237Z,0
2018-02-27T04:01:56.313Z,0
2018-02-27T04:02:56.290Z,0
2018-02-27T04:03:56.263Z,0
2018-02-27T04:04:56.190Z,0
2018-02-27T04:05:56.265Z,0
2018-02-27T04:06:56.309Z,0
2018-02-27T04:07:56.248Z,0
2018-02-27T04:08:56.204Z,0
2018-02-27T04:09:56.297Z,0
2018-02-27T04:10:56.189Z,0
2018-02-27T04:11:56.293Z,0
2018-02-27T04:12:56.299Z,0
2018-02-27T04:13:56.310Z,0
2018-02-27T04:14:56.176Z,0
2018-02-27T04:15:56.210Z,0
2018-02-27T04:16:56.244Z,0
2018-02-27T04:17:56.235Z,0
2018-02-27T04:18:56.183Z,0
2018-02-27T04:19:56.302Z,0
2018-02-27T04:20:56.276Z,0
2018-02-27T04:21:56.280Z,0
2018-02-27T04:22:56.289Z,0
2018-02-27T04:23:56.314Z,0
2018-02-27T04:24:56.336Z,0
2018-02-27T04:25:56.240Z,0
2018-02-27T04:26:56.238Z,0
2018-02-27T04:27:56.247Z,0
2018-02-27T04:28:56.233Z,0
2018-02-27T04:29:56.263Z,0
2018-02-27T04:30:56.134Z,0
2018-02-27T04:31:56.207Z,0
2018-02-27T04:32:56.232Z,0
2018-02-27T04:33:56.138Z,0
2018-02-27T04:34:56.141Z,0
2018-02-27T04:35:56.233Z,0
2018-02-27T04:36:56.193Z,0
2018-02-27T04:37:56.191Z,0
2018-02-27T04:38:56.206Z,0
2018-02-27T04:39:56.147Z,0
2018-02-27T04:40:56.281Z,0
2018-02-27T04:41:56.287Z,0
2018-02-27T04:42:56.213Z,0
2018-02-27T04:43:56.208Z,0
2018-02-27T04:44:56.286Z,0
2018-02-27T04:45:56.275Z,0
2018-02-27T04:46:56.197Z,0
2018-02-27T04:47:56.213Z,0
2018-02-27T04:48:56.168Z,0
2018-02-27T04:49:56.285Z,0
2018-02-27T04:50:56.201Z,0
2018-02-27T04:51:56.289Z,0
2018-02-27T04:52:56.202Z,0
2018-02-27T04:53:56.187Z,0
2018-02-27T04:54:56.228Z,0
2018-02-27T04:55:56.261Z,0
2018-02-27T04:56:56.226Z,0
2018-02-27T04:57:56.203Z,0
2018-02-27T04:58:56.286Z,0
2018-02-27T04:59:56.262Z,0
2018-02-27T05:00:56.292Z,0
2018-02-27T05:01:56.227Z,0
2018-02-27T05:02:56.295Z,0
2018-02-27T05:03:56.218Z,0
2018-02-27T05:04:56.297Z,0
2018-02-27T05:05:56.300Z,0
2018-02-27T05:06:56.251Z,0
2018-02-27T05:07:56.225Z,0
2018-02-27T05:08:56.305Z,0
2018-02-27T05:09:56.232Z,0
2018-02-27T05:10:56.221Z,0
2018-02-27T05:11:56.211Z,0
2018-02-27T05:12:56.211Z,0
2018-02-27T05:13:56.300Z,0
2018-02-27T05:14:56.302Z,0
2018-02-27T05:15:56.181Z,0
2018-02-27T05:16:56.303Z,0
2018-02-27T05:17:56.302Z,0
2018-02-27T05:18:56.227Z,0
2018-02-27T05:19:56.215Z,0
2018-02-27T05:20:56.362Z,0
2018-02-27T05:21:56.373Z,0
2018-02-27T05:22:56.320Z,0
2018-02-27T05:23:56.346Z,0
2018-02-27T05:24:56.278Z,0
2018-02-27T05:25:56.272Z,0
2018-02-27T05:26:56.296Z,0
2018-02-27T05:27:56.287Z,0
2018-02-27T05:28:56.323Z,0
2018-02-27T05:29:56.223Z,0
2018-02-27T05:30:56.354Z,0
2018-02-27T05:31:56.284Z,0
2018-02-27T05:32:56.235Z,0
2018-02-27T05:33:56.287Z,0
2018-02-27T05:34:56.302Z,0
2018-02-27T05:35:56.346Z,0
2018-02-27T05:36:56.295Z,4
2018-02-27T05:37:56.345Z,4
2018-02-27T05:38:56.247Z,0
2018-02-27T05:39:56.345Z,4
2018-02-27T05:40:56.358Z,4
2018-02-27T05:41:56.350Z,8
2018-02-27T05:42:56.328Z,4
2018-02-27T05:43:56.410Z,8
2018-02-27T05:44:56.330Z,8
2018-02-27T05:45:56.247Z,12
2018-02-27T05:46:56.257Z,12
2018-02-27T05:47:56.296Z,16
2018-02-27T05:48:56.266Z,20
2018-02-27T05:49:56.296Z,24
2018-02-27T05:50:56.218Z,28
2018-02-27T05:51:56.237Z,36
2018-02-27T05:52:56.327Z,40
2018-02-27T05:53:56.326Z,52
2018-02-27T05:54:56.325Z,64
2018-02-27T05:55:56.326Z,72
2018-02-27T05:56:56.298Z,84
2018-02-27T05:57:56.240Z,100
2018-02-27T05:58:56.330Z,116
2018-02-27T05:59:56.259Z,132
2018-02-27T06:00:56.268Z,152
2018-02-27T06:01:56.269Z,176
2018-02-27T06:02:56.277Z,204
2018-02-27T06:03:56.269Z,232
2018-02-27T06:04:56.355Z,264
2018-02-27T06:05:56.350Z,300
2018-02-27T06:06:56.270Z,340
2018-02-27T06:07:56.306Z,388
2018-02-27T06:08:56.316Z,432
2018-02-27T06:09:56.345Z,484
2018-02-27T06:10:56.303Z,540
2018-02-27T06:11:56.289Z,600
2018-02-27T06:12:56.346Z,660
2018-02-27T06:13:56.374Z,724
2018-02-27T06:14:56.325Z,796
2018-02-27T06:15:56.371Z,868
2018-02-27T06:16:56.285Z,944
2018-02-27T06:17:56.389Z,1024
2018-02-27T06:18:56.354Z,1104
2018-02-27T06:19:56.306Z,1188
2018-02-27T06:20:56.288Z,1280
2018-02-27T06:21:56.331Z,1372
2018-02-27T06:22:56.249Z,1472
2018-02-27T06:23:56.256Z,1576
2018-02-27T06:24:56.348Z,1692
2018-02-27T06:25:56.326Z,1808
2018-02-27T06:26:56.413Z,1928
2018-02-27T06:27:56.350Z,2056
2018-02-27T06:28:56.350Z,2184
2018-02-27T06:29:56.349Z,2304
2018-02-27T06:30:56.359Z,2420
2018-02-27T06:31:56.217Z,2544
2018-02-27T06:32:56.220Z,2704
2018-02-27T06:33:56.248Z,2876
2018-02-27T06:34:56.285Z,3020
2018-02-27T06:35:56.257Z,3152
2018-02-27T06:36:56.290Z,3272
2018-02-27T06:37:56.320Z,3408
2018-02-27T06:38:56.255Z,3540
2018-02-27T06:39:56.297Z,3656
2018-02-27T06:40:56.293Z,3788
2018-02-27T06:41:56.283Z,3920
2018-02-27T06:42:56.423Z,4056
2018-02-27T06:43:56.326Z,4184
2018-02-27T06:44:56.280Z,4312
2018-02-27T06:45:56.326Z,4404
2018-02-27T06:46:56.284Z,4464
2018-02-27T06:47:56.285Z,4548
2018-02-27T06:48:56.396Z,4660
2018-02-27T06:49:56.373Z,4712
2018-02-27T06:50:56.327Z,4768
2018-02-27T06:51:56.354Z,4856
2018-02-27T06:52:56.272Z,5112
2018-02-27T06:53:56.397Z,5544
2018-02-27T06:54:56.356Z,5792
2018-02-27T06:55:56.274Z,5752
2018-02-27T06:56:56.356Z,5624
2018-02-27T06:57:56.365Z,5580
2018-02-27T06:58:56.365Z,5548
2018-02-27T06:59:56.361Z,5652
2018-02-27T07:00:56.321Z,5768
2018-02-27T07:01:56.328Z,5884
2018-02-27T07:02:56.350Z,6544
2018-02-27T07:03:56.263Z,7244
2018-02-27T07:04:56.261Z,7392
2018-02-27T07:05:56.309Z,7588
2018-02-27T07:06:56.352Z,8812
2018-02-27T07:07:56.355Z,10380
2018-02-27T07:08:56.299Z,12376
2018-02-27T07:09:56.327Z,13804
2018-02-27T07:10:56.337Z,14400
2018-02-27T07:11:56.377Z,14812
2018-02-27T07:12:56.350Z,15188
2018-02-27T07:13:56.341Z,15276
2018-02-27T07:14:56.302Z,15088
2018-02-27T07:15:56.382Z,16412
2018-02-27T07:16:56.384Z,13464
2018-02-27T07:17:56.385Z,12676
2018-02-27T07:18:56.380Z,14696
2018-02-27T07:19:56.285Z,16836
2018-02-27T07:20:56.422Z,16428
2018-02-27T07:21:56.322Z,13836
2018-02-27T07:22:56.420Z,14852
2018-02-27T07:23:56.387Z,15112
2018-02-27T07:24:56.384Z,16496
2018-02-27T07:25:56.305Z,13448
2018-02-27T07:26:56.390Z,13304
2018-02-27T07:27:56.363Z,13900
2018-02-27T07:28:56.369Z,15368
2018-02-27T07:29:56.389Z,15248
2018-02-27T07:30:56.423Z,13420
2018-02-27T07:31:56.350Z,13880
2018-02-27T07:32:56.372Z,16044
2018-02-27T07:33:56.416Z,15748
2018-02-27T07:34:56.356Z,15156
2018-02-27T07:35:56.390Z,18272
2018-02-27T07:36:56.293Z,17340
2018-02-27T07:37:56.468Z,15684
2018-02-27T07:38:56.354Z,14896
2018-02-27T07:39:56.296Z,15308
2018-02-27T07:40:56.396Z,16240
2018-02-27T07:41:56.455Z,14976
2018-02-27T07:42:56.318Z,16096
2018-02-27T07:43:56.425Z,16756
2018-02-27T07:44:56.379Z,18436
2018-02-27T07:45:56.431Z,21792
2018-02-27T07:46:56.396Z,19388
2018-02-27T07:47:56.384Z,18108
2018-02-27T07:48:56.427Z,18692
2018-02-27T07:49:56.301Z,18852
2018-02-27T07:50:56.378Z,16116
2018-02-27T07:51:56.411Z,21600
2018-02-27T07:52:56.439Z,16408
2018-02-27T07:53:56.388Z,16948
2018-02-27T07:54:56.378Z,19552
2018-02-27T07:55:56.325Z,29760
2018-02-27T07:56:56.408Z,33344
2018-02-27T07:57:56.431Z,34464
2018-02-27T07:58:56.366Z,34496
2018-02-27T07:59:56.449Z,36224
2018-02-27T08:00:56.444Z,36640
2018-02-27T08:01:56.409Z,33696
2018-02-27T08:02:56.314Z,18980
2018-02-27T08:03:56.412Z,31776
2018-02-27T08:04:56.308Z,21664
2018-02-27T08:05:56.432Z,22336
2018-02-27T08:06:56.440Z,25440
2018-02-27T08:07:56.383Z,28896
2018-02-27T08:08:56.454Z,32512
2018-02-27T08:09:56.388Z,29472
2018-02-27T08:10:56.414Z,30240
2018-02-27T08:11:56.361Z,28704
2018-02-27T08:12:56.425Z,27264
2018-02-27T08:13:56.420Z,24864
2018-02-27T08:14:56.349Z,23744
2018-02-27T08:15:56.350Z,25760
2018-02-27T08:16:56.352Z,24128
2018-02-27T08:17:56.356Z,23584
2018-02-27T08:18:56.350Z,24128
2018-02-27T08:19:56.426Z,26976
2018-02-27T08:20:56.421Z,25920
2018-02-27T08:21:56.367Z,23552
2018-02-27T08:22:56.451Z,23136
2018-02-27T08:23:56.484Z,27616
2018-02-27T08:24:56.453Z,35872
2018-02-27T08:25:56.420Z,29056
2018-02-27T08:26:56.361Z,25472
2018-02-27T08:27:56.430Z,28096
2018-02-27T08:28:56.332Z,30944
2018-02-27T08:29:56.331Z,28928
2018-02-27T08:30:56.332Z,34624
2018-02-27T08:31:56.407Z,36384
2018-02-27T08:32:56.357Z,42304
2018-02-27T08:33:56.432Z,55936
2018-02-27T08:34:56.363Z,56256
2018-02-27T08:35:56.433Z,56640
2018-02-27T08:36:56.435Z,54240
2018-02-27T08:37:56.375Z,56288
2018-02-27T08:38:56.434Z,32544
2018-02-27T08:39:56.435Z,57344
2018-02-27T08:40:56.320Z,59488
2018-02-27T08:41:56.412Z,59680
2018-02-27T08:42:56.398Z,59552
2018-02-27T08:43:56.404Z,59744
2018-02-27T08:44:56.460Z,60128
2018-02-27T08:45:56.357Z,59488
2018-02-27T08:46:56.334Z,59296
2018-02-27T08:47:56.357Z,59040
2018-02-27T08:48:56.513Z,59872
2018-02-27T08:49:56.434Z,59232
2018-02-27T08:50:56.458Z,60160
2018-02-27T08:51:56.442Z,59168
2018-02-27T08:52:56.370Z,60864
2018-02-27T08:53:56.378Z,62656
2018-02-27T08:54:56.402Z,65856
2018-02-27T08:55:56.446Z,65472
2018-02-27T08:56:56.388Z,65152
2018-02-27T08:57:56.447Z,61696
2018-02-27T08:58:56.379Z,58624
2018-02-27T08:59:56.377Z,55456
2018-02-27T09:00:56.492Z,52768
2018-02-27T09:01:56.461Z,52992
2018-02-27T09:02:56.388Z,54144
2018-02-27T09:03:56.459Z,54080
2018-02-27T09:04:56.446Z,54464
2018-02-27T09:05:56.474Z,53024
2018-02-27T09:06:56.352Z,51264
2018-02-27T09:07:56.387Z,50336
2018-02-27T09:08:56.421Z,51360
2018-02-27T09:09:56.415Z,54816
2018-02-27T09:10:56.509Z,60768
2018-02-27T09:11:56.454Z,65504
2018-02-27T09:12:56.418Z,64896
2018-02-27T09:13:56.431Z,58016
2018-02-27T09:14:56.370Z,52864
2018-02-27T09:15:56.489Z,51456
2018-02-27T09:16:56.492Z,55264
2018-02-27T09:17:56.353Z,58656
2018-02-27T09:18:56.424Z,58048
2018-02-27T09:19:56.528Z,63840
2018-02-27T09:20:56.464Z,73504
2018-02-27T09:21:56.421Z,75520
2018-02-27T09:22:56.393Z,75712
2018-02-27T09:23:56.461Z,73664
2018-02-27T09:24:56.393Z,51520
2018-02-27T09:25:56.398Z,59648
2018-02-27T09:26:56.391Z,77632
2018-02-27T09:27:56.390Z,75808
2018-02-27T09:28:56.391Z,73280
2018-02-27T09:29:56.399Z,71456
2018-02-27T09:30:56.396Z,72672
2018-02-27T09:31:56.489Z,76192
2018-02-27T09:32:56.463Z,79040
2018-02-27T09:33:56.420Z,80928
2018-02-27T09:34:56.529Z,81376
2018-02-27T09:35:56.493Z,79488
2018-02-27T09:36:56.440Z,77632
2018-02-27T09:37:56.492Z,76832
2018-02-27T09:38:56.464Z,78176
2018-02-27T09:39:56.429Z,80320
2018-02-27T09:40:56.466Z,83136
2018-02-27T09:41:56.403Z,83840
2018-02-27T09:42:56.476Z,81280
2018-02-27T09:43:56.405Z,78624
2018-02-27T09:44:56.471Z,77824
2018-02-27T09:45:56.469Z,79648
2018-02-27T09:46:56.405Z,84096
2018-02-27T09:47:56.471Z,88448
2018-02-27T09:48:56.408Z,90240
2018-02-27T09:49:56.476Z,91072
2018-02-27T09:50:56.402Z,89280
2018-02-27T09:51:56.472Z,88320
2018-02-27T09:52:56.402Z,90432
2018-02-27T09:53:56.482Z,89024
2018-02-27T09:54:56.503Z,89184
2018-02-27T09:55:56.503Z,91680
2018-02-27T09:56:57.416Z,92960
2018-02-27T09:57:56.447Z,95168
2018-02-27T09:58:56.381Z,95008
2018-02-27T09:59:56.464Z,95072
2018-02-27T10:00:56.502Z,97280
2018-02-27T10:01:56.436Z,100480
2018-02-27T10:02:56.518Z,104192
2018-02-27T10:03:56.444Z,101984
2018-02-27T10:04:56.502Z,106336
2018-02-27T10:05:56.381Z,97120
2018-02-27T10:06:56.484Z,73184
2018-02-27T10:07:56.482Z,62240
2018-02-27T10:08:56.483Z,61504
2018-02-27T10:09:56.558Z,70848
2018-02-27T10:10:56.450Z,71680
2018-02-27T10:11:56.525Z,69152
2018-02-27T10:12:56.484Z,71936
2018-02-27T10:13:56.455Z,72448
2018-02-27T10:14:56.487Z,77856
2018-02-27T10:15:56.463Z,72384
2018-02-27T10:16:56.491Z,67648
2018-02-27T10:17:56.507Z,66144
2018-02-27T10:18:56.531Z,79040
2018-02-27T10:19:56.454Z,83104
2018-02-27T10:20:56.493Z,71968
2018-02-27T10:21:56.490Z,69440
2018-02-27T10:22:56.417Z,72864
2018-02-27T10:23:56.491Z,75232
2018-02-27T10:24:56.519Z,107968
2018-02-27T10:25:56.495Z,68416
2018-02-27T10:26:56.428Z,77184
2018-02-27T10:27:56.496Z,70080
2018-02-27T10:28:56.432Z,73952
2018-02-27T10:29:56.501Z,64512
2018-02-27T10:30:56.499Z,74368
2018-02-27T10:31:56.435Z,63936
2018-02-27T10:32:56.368Z,63392
2018-02-27T10:33:56.433Z,66592
2018-02-27T10:34:56.423Z,68128
2018-02-27T10:35:56.503Z,76864
2018-02-27T10:36:56.486Z,81696
2018-02-27T10:37:56.478Z,75136
2018-02-27T10:38:56.393Z,61504
2018-02-27T10:39:56.364Z,59232
2018-02-27T10:40:56.358Z,60224
2018-02-27T10:41:56.439Z,62752
2018-02-27T10:42:56.438Z,65152
2018-02-27T10:43:56.509Z,67872
2018-02-27T10:44:56.435Z,76480
2018-02-27T10:45:56.516Z,68160
2018-02-27T10:46:56.444Z,66816
2018-02-27T10:47:56.509Z,81760
2018-02-27T10:48:56.509Z,71712
2018-02-27T10:49:56.471Z,63232
2018-02-27T10:50:56.519Z,68672
2018-02-27T10:51:56.534Z,78720
2018-02-27T10:52:56.411Z,75296
2018-02-27T10:53:56.482Z,64608
2018-02-27T10:54:56.545Z,61216
2018-02-27T10:55:56.512Z,58208
2018-02-27T10:56:56.475Z,56352
2018-02-27T10:57:56.419Z,56128
2018-02-27T10:58:56.484Z,56640
2018-02-27T10:59:56.490Z,57824
2018-02-27T11:00:56.513Z,59488
2018-02-27T11:01:56.486Z,61536
2018-02-27T11:02:56.545Z,63360
2018-02-27T11:03:56.417Z,66080
2018-02-27T11:04:56.425Z,63136
2018-02-27T11:05:56.557Z,63104
2018-02-27T11:06:56.439Z,58624
2018-02-27T11:07:56.476Z,56544
2018-02-27T11:08:56.526Z,54240
2018-02-27T11:09:56.555Z,53792
2018-02-27T11:10:56.522Z,53440
2018-02-27T11:11:56.442Z,55296
2018-02-27T11:12:56.528Z,56288
2018-02-27T11:13:56.394Z,53856
2018-02-27T11:14:56.519Z,51488
2018-02-27T11:15:56.457Z,49632
2018-02-27T11:16:56.431Z,48064
2018-02-27T11:17:56.515Z,46080
2018-02-27T11:19:56.471Z,43040
2018-02-27T11:20:56.447Z,43616
2018-02-27T11:21:56.457Z,47168
2018-02-27T11:22:56.530Z,58144
2018-02-27T11:23:56.466Z,69376
2018-02-27T11:24:56.461Z,80416
2018-02-27T11:25:56.534Z,64480
2018-02-27T11:26:56.465Z,53312
2018-02-27T11:27:56.467Z,52800
2018-02-27T11:28:56.467Z,79168
2018-02-27T11:29:56.531Z,89696
2018-02-27T11:30:56.533Z,97312
2018-02-27T11:31:56.427Z,86656
2018-02-27T11:32:56.405Z,84032
2018-02-27T11:33:56.485Z,74240
2018-02-27T11:34:56.513Z,68672
2018-02-27T11:35:56.405Z,61152
2018-02-27T11:36:56.493Z,51616
2018-02-27T11:37:56.430Z,48576
2018-02-27T11:38:56.512Z,55488
2018-02-27T11:39:56.463Z,60896
2018-02-27T11:40:56.411Z,48000
2018-02-27T11:41:56.561Z,50304
2018-02-27T11:42:56.441Z,54272
2018-02-27T11:43:56.510Z,48320
2018-02-27T11:44:56.573Z,47936
2018-02-27T11:45:56.542Z,49536
2018-02-27T11:46:56.482Z,49376
2018-02-27T11:47:56.514Z,48768
2018-02-27T11:48:56.501Z,59904
2018-02-27T11:49:56.507Z,77184
2018-02-27T11:50:56.452Z,90688
2018-02-27T11:51:56.549Z,88224
2018-02-27T11:52:56.480Z,60544
2018-02-27T11:53:56.553Z,70080
2018-02-27T11:54:56.499Z,99008
2018-02-27T11:55:56.547Z,101536
2018-02-27T11:56:56.547Z,104224
2018-02-27T11:57:56.550Z,103808
2018-02-27T11:58:56.481Z,100192
2018-02-27T11:59:56.487Z,96544
2018-02-27T12:00:56.554Z,94688
2018-02-27T12:01:56.440Z,95360
2018-02-27T12:02:56.443Z,97856
2018-02-27T12:03:56.513Z,100864
2018-02-27T12:04:56.411Z,99936
2018-02-27T12:05:56.449Z,95968
2018-02-27T12:06:56.540Z,91872
2018-02-27T12:07:56.490Z,89952
2018-02-27T12:08:56.535Z,89600
2018-02-27T12:09:56.423Z,90784
2018-02-27T12:10:56.512Z,93952
2018-02-27T12:11:56.492Z,96384
2018-02-27T12:12:56.564Z,96960
2018-02-27T12:13:56.563Z,96320
2018-02-27T12:14:56.488Z,95200
2018-02-27T12:15:56.489Z,96224
2018-02-27T12:16:56.560Z,97536
2018-02-27T12:17:56.490Z,97856
2018-02-27T12:18:56.497Z,95296
2018-02-27T12:19:56.563Z,93568
2018-02-27T12:20:56.559Z,92800
2018-02-27T12:21:56.450Z,91648
2018-02-27T12:22:56.471Z,97184
2018-02-27T12:23:56.546Z,99520
2018-02-27T12:24:56.436Z,94976
2018-02-27T12:25:56.422Z,97504
2018-02-27T12:26:56.550Z,84704
2018-02-27T12:27:56.505Z,93248
2018-02-27T12:28:56.553Z,94592
2018-02-27T12:29:56.465Z,98432
2018-02-27T12:30:56.442Z,102976
2018-02-27T12:31:56.470Z,105984
2018-02-27T12:32:56.491Z,106720
2018-02-27T12:33:56.610Z,107488
2018-02-27T12:34:56.574Z,109664
2018-02-27T12:35:56.574Z,111424
2018-02-27T12:36:56.599Z,113120
2018-02-27T12:37:56.575Z,80704
2018-02-27T12:38:56.554Z,116864
2018-02-27T12:39:56.483Z,121056
2018-02-27T12:40:56.536Z,98304
2018-02-27T12:41:56.669Z,70752
2018-02-27T12:42:56.515Z,115168
2018-02-27T12:43:56.518Z,118880
2018-02-27T12:44:56.583Z,112576
2018-02-27T12:45:56.603Z,60544
2018-02-27T12:46:56.482Z,51392
2018-02-27T12:47:56.583Z,44448
2018-02-27T12:48:56.580Z,45856
2018-02-27T12:49:56.480Z,47616
2018-02-27T12:50:56.520Z,43552
2018-02-27T12:51:56.582Z,46752
2018-02-27T12:52:56.518Z,50304
2018-02-27T12:53:56.518Z,43904
2018-02-27T12:54:56.585Z,42592
2018-02-27T12:55:56.523Z,42080
2018-02-27T12:56:56.480Z,42272
2018-02-27T12:57:56.519Z,42336
2018-02-27T12:58:56.515Z,45536
2018-02-27T12:59:56.587Z,50112
2018-02-27T13:00:56.550Z,56128
2018-02-27T13:01:56.524Z,77984
2018-02-27T13:02:56.576Z,59936
2018-02-27T13:03:56.471Z,59296
2018-02-27T13:04:56.549Z,70176
2018-02-27T13:05:56.477Z,66240
2018-02-27T13:06:56.499Z,73216
2018-02-27T13:07:56.575Z,72960
2018-02-27T13:08:56.525Z,98048
2018-02-27T13:09:56.457Z,77024
2018-02-27T13:10:56.585Z,80096
2018-02-27T13:11:56.479Z,89856
2018-02-27T13:12:56.585Z,72768
2018-02-27T13:13:56.584Z,105344
2018-02-27T13:14:56.466Z,96800
2018-02-27T13:15:56.586Z,100768
2018-02-27T13:16:56.584Z,106976
2018-02-27T13:17:56.549Z,70816
2018-02-27T13:18:56.584Z,79168
2018-02-27T13:19:56.538Z,65632
2018-02-27T13:20:56.584Z,67040
2018-02-27T13:21:56.532Z,88352
2018-02-27T13:22:56.586Z,41344
2018-02-27T13:23:56.555Z,40352
2018-02-27T13:24:56.497Z,43040
2018-02-27T13:25:56.539Z,46656
2018-02-27T13:26:56.495Z,47648
2018-02-27T13:27:56.589Z,44032
2018-02-27T13:28:56.535Z,43264
2018-02-27T13:29:56.560Z,39552
2018-02-27T13:30:56.586Z,39328
2018-02-27T13:31:56.588Z,40288
2018-02-27T13:32:56.505Z,39488
2018-02-27T13:33:56.566Z,38496
2018-02-27T13:34:56.633Z,39360
2018-02-27T13:35:56.630Z,38944
2018-02-27T13:36:56.609Z,36800
2018-02-27T13:37:56.582Z,43872
2018-02-27T13:38:56.636Z,38720
2018-02-27T13:39:56.632Z,40096
2018-02-27T13:40:56.523Z,36128
2018-02-27T13:41:56.647Z,41664